createdAt,value
2023-02-16T00:05:18.589Z,81.79
2023-02-16T00:11:41.589Z,81.92
2023-02-16T00:18:01.611Z,82.16
2023-02-16T00:24:24.691Z,82.24
2023-02-16T00:30:44.638Z,82.43
2023-02-16T00:37:07.617Z,82.35
2023-02-16T00:43:27.631Z,82.23
2023-02-16T00:49:50.632Z,82.3
2023-02-16T00:56:10.675Z,82.58
2023-02-16T01:02:33.705Z,82.69
2023-02-16T01:08:53.621Z,82.84
2023-02-16T01:15:16.654Z,83.03
2023-02-16T01:21:36.645Z,82.86
2023-02-16T01:27:59.628Z,83.11
2023-02-16T01:34:19.848Z,83.02
2023-02-16T01:40:42.598Z,83.23
2023-02-16T01:47:02.644Z,83.36
2023-02-16T01:53:25.743Z,83.43
2023-02-16T01:59:45.612Z,83.87
2023-02-16T02:06:09.682Z,83.93
2023-02-16T02:12:29.680Z,83.73
2023-02-16T02:18:52.690Z,83.38
2023-02-16T02:25:12.623Z,83.58
2023-02-16T02:31:35.736Z,83.72
2023-02-16T02:37:55.576Z,83.99
2023-02-16T02:44:18.641Z,83.95
2023-02-16T02:50:38.646Z,83.78
2023-02-16T02:57:01.676Z,84.24
2023-02-16T03:03:21.777Z,84.34
2023-02-16T03:09:44.662Z,84.27
2023-02-16T03:16:04.585Z,84.13
2023-02-16T03:22:27.633Z,84.28
2023-02-16T03:28:47.651Z,84.38
2023-02-16T03:35:10.650Z,84.54
2023-02-16T03:41:30.648Z,84.37
2023-02-16T03:47:53.618Z,84.62
2023-02-16T03:54:13.627Z,84.82
2023-02-16T04:00:36.624Z,84.9
2023-02-16T04:06:56.634Z,84.64
2023-02-16T04:23:48.127Z,84.92
2023-02-16T04:30:07.679Z,85.05
2023-02-16T04:36:30.603Z,84.99
2023-02-16T04:42:50.649Z,84.89
2023-02-16T04:49:13.620Z,85.08
2023-02-16T04:55:33.564Z,85.37
2023-02-16T05:01:56.687Z,85.2
2023-02-16T05:08:17.828Z,85.32
2023-02-16T05:14:39.598Z,85.05
2023-02-16T05:20:59.639Z,84.97
2023-02-16T05:27:22.635Z,85.2
2023-02-16T05:33:42.722Z,85.29
2023-02-16T05:40:05.786Z,85.23
2023-02-16T05:46:25.626Z,85.44
2023-02-16T05:52:48.616Z,85.31
2023-02-16T05:59:08.604Z,85.29
2023-02-16T06:05:32.843Z,85.4
2023-02-16T06:11:53.590Z,85.25
2023-02-16T06:18:16.623Z,85.39
2023-02-16T06:24:36.587Z,85.32
2023-02-16T06:30:59.683Z,85.42
2023-02-16T06:37:19.595Z,85.42
2023-02-16T06:43:42.677Z,85.63
2023-02-16T06:50:02.565Z,85.36
2023-02-16T06:56:25.763Z,85.23
2023-02-16T07:02:45.642Z,85.4
2023-02-16T07:09:10.578Z,85.28
2023-02-16T07:15:28.622Z,84.98
2023-02-16T07:21:51.619Z,84.73
2023-02-16T07:28:11.647Z,84.11
2023-02-16T07:34:34.613Z,83.58
2023-02-16T07:40:54.587Z,82.87
2023-02-16T07:47:17.580Z,82.7
2023-02-16T07:53:37.635Z,82.24
2023-02-16T08:00:00.625Z,82.17
2023-02-16T08:06:20.805Z,82.12
2023-02-16T08:12:43.653Z,82.13
2023-02-16T08:19:03.689Z,81.68
2023-02-16T08:25:26.620Z,81.32
2023-02-16T08:31:46.853Z,80.84
2023-02-16T08:38:09.703Z,80.88
2023-02-16T08:44:29.641Z,80.47
2023-02-16T08:50:52.666Z,80.01
2023-02-16T08:57:12.609Z,80.15
2023-02-16T09:03:35.652Z,80.4
2023-02-16T09:09:55.624Z,80.37
2023-02-16T09:33:37.624Z,78.42
2023-02-16T09:40:00.572Z,78.24
2023-02-16T09:46:22.472Z,78.28
2023-02-16T09:52:43.638Z,78.53
2023-02-16T09:59:03.629Z,76.82
2023-02-16T10:05:27.644Z,75.03
2023-02-16T10:11:47.904Z,73.52
2023-02-16T10:18:10.711Z,72.76
2023-02-16T10:24:30.599Z,72.14
2023-02-16T10:30:53.865Z,71.68
2023-02-16T10:37:13.598Z,70.72
2023-02-16T10:43:36.582Z,70.25
2023-02-16T10:49:56.633Z,71.28
2023-02-16T10:56:19.583Z,71.59
2023-02-16T11:02:39.640Z,71.5
2023-02-16T11:09:02.750Z,72.11
2023-02-16T11:15:22.580Z,70.16
2023-02-16T11:21:45.599Z,70.56
2023-02-16T11:28:05.601Z,69.48
2023-02-16T11:34:28.614Z,68.69
2023-02-16T11:40:48.609Z,68.58
2023-02-16T11:47:11.624Z,67.37
2023-02-16T11:53:31.628Z,66.54
2023-02-16T11:59:54.701Z,65.68
2023-02-16T12:06:14.655Z,65.81
2023-02-16T12:12:37.576Z,65.31
2023-02-16T12:18:57.575Z,66.35
2023-02-16T12:25:20.682Z,66.02
2023-02-16T12:31:40.883Z,65.95
2023-02-16T12:38:04.614Z,66.37
2023-02-16T12:44:24.634Z,67.04
2023-02-16T12:50:47.623Z,67.14
2023-02-16T12:57:07.574Z,67.33
2023-02-16T13:03:30.849Z,67.37
2023-02-16T13:09:50.612Z,67.78
2023-02-16T13:16:27.631Z,67.36
2023-02-16T13:22:33.612Z,67.84
2023-02-16T13:28:56.709Z,67.59
2023-02-16T13:35:16.597Z,67.61
2023-02-16T13:41:39.628Z,67.77
2023-02-16T13:47:59.594Z,68.06
2023-02-16T13:54:22.590Z,70.32
2023-02-16T14:00:42.683Z,71.86
2023-02-16T14:07:05.576Z,71.87
2023-02-16T14:13:25.603Z,72.9
2023-02-16T14:19:48.631Z,72.91
2023-02-16T14:26:08.645Z,71.82
2023-02-16T14:32:31.574Z,70.15
2023-02-16T14:38:51.606Z,69.8
2023-02-16T14:55:20.799Z,68.59
2023-02-16T15:01:40.644Z,68.3
2023-02-16T15:08:03.578Z,67.12
2023-02-16T15:14:23.704Z,65.56
2023-02-16T15:20:46.581Z,65.43
2023-02-16T15:27:06.632Z,64.12
2023-02-16T15:33:29.596Z,64.48
2023-02-16T15:40:06.268Z,64.38
2023-02-16T15:46:12.639Z,64.26
2023-02-16T15:52:32.593Z,64.56
2023-02-16T15:58:55.613Z,64.53
2023-02-16T16:05:15.663Z,64.94
2023-02-16T16:11:38.618Z,65.22
2023-02-16T16:17:59.839Z,65.86
2023-02-16T16:24:22.888Z,66.55
2023-02-16T16:30:42.672Z,67.03
2023-02-16T16:37:05.566Z,67.61
2023-02-16T16:43:25.685Z,68.29
2023-02-16T16:49:48.780Z,68.86
2023-02-16T16:56:08.583Z,69.26
2023-02-16T17:02:31.588Z,69.61
2023-02-16T17:08:51.608Z,69.87
2023-02-16T17:15:14.607Z,70.04
2023-02-16T17:21:34.587Z,70.18
2023-02-16T17:27:57.605Z,70.4
2023-02-16T17:34:17.574Z,70.55
2023-02-16T17:40:40.760Z,70.69
2023-02-16T17:47:00.633Z,70.83
2023-02-16T17:53:23.575Z,70.69
2023-02-16T17:59:43.641Z,70.83
2023-02-16T18:06:06.935Z,70.94
2023-02-16T18:12:28.378Z,70.75
2023-02-16T18:18:49.610Z,70.74
2023-02-16T18:25:09.598Z,70.66
2023-02-16T18:31:32.738Z,70.57
2023-02-16T18:37:52.588Z,70.6
2023-02-16T18:44:15.622Z,70.71
2023-02-16T18:50:35.898Z,70.82
2023-02-16T18:56:58.610Z,70.83
2023-02-16T19:03:18.665Z,71.15
2023-02-16T19:09:41.600Z,71.77
2023-02-16T19:16:01.653Z,72.42
2023-02-16T19:22:24.703Z,72.39
2023-02-16T19:28:44.573Z,72.28
2023-02-16T19:35:07.593Z,72.29
2023-02-16T19:41:27.634Z,72.08
2023-02-16T19:47:50.596Z,71.97
2023-02-16T19:54:10.590Z,72.11
2023-02-16T20:10:38.515Z,72.27
2023-02-16T20:16:58.594Z,72.08
2023-02-16T20:23:21.564Z,72.34
2023-02-16T20:29:41.613Z,72.33
2023-02-16T20:36:04.794Z,72.27
2023-02-16T20:42:24.624Z,72.47
2023-02-16T20:48:47.608Z,73.14
2023-02-16T20:55:07.614Z,73.33
2023-02-16T21:01:30.588Z,73.65
2023-02-16T21:07:50.659Z,75.03
2023-02-16T21:14:13.613Z,77.25
2023-02-16T21:20:33.561Z,79.75
2023-02-16T21:26:56.604Z,81.87
2023-02-16T21:33:16.593Z,83.17
2023-02-16T21:39:39.563Z,84.55
2023-02-16T21:45:59.719Z,85.31
2023-02-16T21:52:22.586Z,85.39
2023-02-16T21:58:42.581Z,85.71
2023-02-16T22:05:05.620Z,86.24
2023-02-16T22:11:25.554Z,86.57
2023-02-16T22:17:48.591Z,86.56
2023-02-16T22:24:08.849Z,86.6
2023-02-16T22:30:31.693Z,86.78
2023-02-16T22:36:51.580Z,86.86
2023-02-16T22:43:14.609Z,87.51
2023-02-16T22:49:34.622Z,87.89
2023-02-16T22:55:57.570Z,88.21
2023-02-16T23:20:11.595Z,87.91
2023-02-16T23:26:31.600Z,87.88
2023-02-16T23:32:54.627Z,87.75
2023-02-16T23:39:14.671Z,87.8
2023-02-16T23:45:37.573Z,88.01
2023-02-16T23:51:57.597Z,87.67
2023-02-16T23:58:20.636Z,86.95
